createdAt,value
2019-05-29T00:01:30.042Z,78.07
2019-05-29T00:03:56.098Z,78.14
2019-05-29T00:06:21.995Z,78.19
2019-05-29T00:08:47.902Z,78.25
2019-05-29T00:11:14.280Z,78.27
2019-05-29T00:13:40.306Z,78.27
2019-05-29T00:16:06.497Z,78.20
2019-05-29T00:18:32.707Z,78.15
2019-05-29T00:20:58.607Z,78.22
2019-05-29T00:23:24.631Z,78.19
2019-05-29T00:25:50.718Z,78.24
2019-05-29T00:28:16.832Z,78.30
2019-05-29T00:30:42.894Z,78.38
2019-05-29T00:33:10.099Z,78.42
2019-05-29T00:35:36.204Z,78.37
2019-05-29T00:38:02.381Z,78.23
2019-05-29T00:40:28.548Z,78.39
2019-05-29T00:42:54.461Z,78.57
2019-05-29T00:45:20.589Z,78.61
2019-05-29T00:47:46.761Z,78.58
2019-05-29T00:50:14.091Z,78.65
2019-05-29T00:52:40.178Z,78.68
2019-05-29T00:55:06.527Z,78.65
2019-05-29T00:57:32.518Z,78.68
2019-05-29T00:59:58.439Z,78.68
2019-05-29T01:02:24.536Z,78.74
2019-05-29T01:04:50.521Z,78.77
2019-05-29T01:07:20.563Z,78.74
2019-05-29T01:09:46.823Z,78.77
2019-05-29T01:12:12.885Z,78.70
2019-05-29T01:14:49.566Z,78.75
2019-05-29T01:17:06.988Z,78.84
2019-05-29T01:19:33.053Z,79.00
2019-05-29T01:21:58.929Z,79.19
2019-05-29T01:24:25.771Z,79.27
2019-05-29T01:26:51.867Z,79.37
2019-05-29T01:29:19.362Z,79.45
2019-05-29T01:31:45.727Z,79.53
2019-05-29T01:34:11.673Z,79.52
2019-05-29T01:36:37.514Z,79.46
2019-05-29T01:39:05.424Z,79.45
2019-05-29T01:41:31.334Z,79.51
2019-05-29T01:43:57.237Z,79.52
2019-05-29T01:46:23.896Z,79.46
2019-05-29T01:48:49.873Z,79.42
2019-05-29T01:51:15.770Z,79.51
2019-05-29T01:53:41.812Z,79.64
2019-05-29T01:56:07.752Z,79.70
2019-05-29T01:58:33.751Z,79.69
2019-05-29T02:00:59.842Z,79.66
2019-05-29T02:03:25.846Z,79.74
2019-05-29T02:05:51.756Z,79.81
2019-05-29T02:08:18.101Z,79.86
2019-05-29T02:10:44.018Z,79.86
2019-05-29T02:13:10.053Z,79.86
2019-05-29T02:15:36.372Z,79.87
2019-05-29T02:18:02.603Z,79.82
2019-05-29T02:20:28.495Z,79.81
2019-05-29T02:22:54.756Z,79.78
2019-05-29T02:25:22.321Z,79.72
2019-05-29T02:27:48.659Z,79.77
2019-05-29T02:30:15.014Z,79.81
2019-05-29T02:32:41.016Z,79.85
2019-05-29T02:35:07.116Z,79.87
2019-05-29T02:37:33.284Z,79.89
2019-05-29T02:39:59.309Z,79.92
2019-05-29T02:42:26.985Z,79.83
2019-05-29T02:44:53.343Z,79.81
2019-05-29T02:47:19.425Z,79.84
2019-05-29T02:49:45.319Z,79.87
2019-05-29T02:52:11.469Z,79.88
2019-05-29T02:54:37.571Z,79.87
2019-05-29T02:57:03.689Z,79.81
2019-05-29T02:59:31.746Z,79.82
2019-05-29T03:01:57.534Z,79.73
2019-05-29T03:04:24.107Z,79.78
2019-05-29T03:06:51.650Z,79.75
2019-05-29T03:09:17.764Z,79.69
2019-05-29T03:11:43.975Z,79.72
2019-05-29T03:14:10.003Z,79.68
2019-05-29T03:16:36.034Z,79.64
2019-05-29T03:19:01.955Z,79.62
2019-05-29T03:21:28.453Z,79.58
2019-05-29T03:23:54.857Z,79.56
2019-05-29T03:26:24.633Z,79.58
2019-05-29T03:28:48.676Z,79.53
2019-05-29T03:31:14.727Z,79.54
2019-05-29T03:33:48.358Z,79.56
2019-05-29T03:36:08.736Z,79.59
2019-05-29T03:38:35.036Z,79.56
2019-05-29T03:41:01.195Z,79.52
2019-05-29T03:43:28.629Z,79.55
2019-05-29T03:45:54.692Z,79.59
2019-05-29T03:48:20.770Z,79.62
2019-05-29T03:50:46.873Z,79.57
2019-05-29T03:53:12.882Z,79.60
2019-05-29T03:55:38.828Z,79.64
2019-05-29T03:58:05.243Z,79.65
2019-05-29T04:00:38.892Z,79.67
2019-05-29T04:02:59.236Z,79.68
2019-05-29T04:05:26.706Z,79.66
2019-05-29T04:07:52.757Z,79.64
2019-05-29T04:10:27.224Z,79.57
2019-05-29T04:12:53.235Z,79.62
2019-05-29T04:15:19.242Z,79.59
2019-05-29T04:17:45.640Z,79.58
2019-05-29T04:20:11.745Z,79.66
2019-05-29T04:22:43.829Z,79.68
2019-05-29T04:25:10.440Z,79.71
2019-05-29T04:27:39.136Z,79.66
2019-05-29T04:30:06.637Z,79.67
2019-05-29T04:32:34.214Z,79.68
2019-05-29T04:35:00.277Z,79.63
2019-05-29T04:37:26.186Z,79.59
2019-05-29T04:39:52.315Z,79.59
2019-05-29T04:42:18.219Z,79.53
2019-05-29T04:44:44.141Z,79.47
2019-05-29T04:47:12.258Z,79.43
2019-05-29T04:49:39.777Z,79.37
2019-05-29T04:52:05.930Z,79.30
2019-05-29T04:54:33.372Z,79.25
2019-05-29T04:56:59.382Z,79.34
2019-05-29T04:59:25.388Z,79.33
2019-05-29T05:01:51.506Z,79.29
2019-05-29T05:04:17.512Z,79.33
2019-05-29T05:06:43.508Z,79.30
2019-05-29T05:09:09.613Z,79.31
2019-05-29T05:11:35.627Z,79.26
2019-05-29T05:14:03.531Z,79.27
2019-05-29T05:16:29.818Z,79.26
2019-05-29T05:18:55.781Z,79.17
2019-05-29T05:21:21.665Z,79.24
2019-05-29T05:23:47.669Z,79.27
2019-05-29T05:26:13.575Z,79.27
2019-05-29T05:28:44.278Z,79.31
2019-05-29T05:31:07.655Z,79.33
2019-05-29T05:33:34.515Z,79.29
2019-05-29T05:36:00.521Z,79.31
2019-05-29T05:38:26.528Z,79.30
2019-05-29T05:40:52.439Z,79.36
2019-05-29T05:43:24.230Z,79.25
2019-05-29T05:45:46.342Z,79.29
2019-05-29T05:48:12.248Z,79.36
2019-05-29T05:50:39.207Z,79.37
2019-05-29T05:53:05.545Z,79.38
2019-05-29T05:55:31.551Z,79.45
2019-05-29T05:57:57.548Z,79.38
2019-05-29T06:00:31.682Z,79.40
2019-05-29T06:02:58.267Z,79.55
2019-05-29T06:05:24.298Z,79.50
2019-05-29T06:07:50.471Z,79.61
2019-05-29T06:10:16.566Z,79.72
2019-05-29T06:12:42.950Z,79.66
2019-05-29T06:15:09.293Z,79.70
2019-05-29T06:17:35.183Z,79.71
2019-05-29T06:20:04.058Z,79.72
2019-05-29T06:22:30.062Z,79.72
2019-05-29T06:24:55.983Z,79.90
2019-05-29T06:27:22.012Z,79.85
2019-05-29T06:29:48.007Z,79.84
2019-05-29T06:32:13.936Z,79.93
2019-05-29T06:34:39.864Z,79.79
2019-05-29T06:37:05.871Z,79.92
2019-05-29T06:39:31.757Z,79.91
2019-05-29T06:41:57.808Z,79.92
2019-05-29T06:44:23.885Z,79.93
2019-05-29T06:46:49.867Z,79.92
2019-05-29T06:49:15.895Z,79.92
2019-05-29T06:51:41.904Z,79.96
2019-05-29T06:54:07.826Z,80.05
2019-05-29T06:56:33.750Z,80.01
2019-05-29T06:58:59.874Z,80.12
2019-05-29T07:01:25.758Z,80.11
2019-05-29T07:04:07.905Z,80.14
2019-05-29T07:06:19.671Z,80.17
2019-05-29T07:08:48.244Z,80.12
2019-05-29T07:11:13.709Z,80.19
2019-05-29T07:13:41.779Z,80.13
2019-05-29T07:16:07.509Z,80.14
2019-05-29T07:18:33.584Z,80.18
2019-05-29T07:20:59.749Z,80.09
2019-05-29T07:23:25.707Z,80.07
2019-05-29T07:25:51.710Z,80.27
2019-05-29T07:28:18.108Z,80.28
2019-05-29T07:30:54.408Z,80.31
2019-05-29T07:33:11.982Z,80.40
2019-05-29T07:35:37.989Z,80.36
2019-05-29T07:38:04.084Z,80.33
2019-05-29T07:40:30.043Z,80.40
2019-05-29T07:42:57.070Z,80.42
2019-05-29T07:45:23.312Z,80.41
2019-05-29T07:47:49.352Z,80.36
2019-05-29T07:50:15.859Z,80.46
2019-05-29T07:52:43.201Z,80.50
2019-05-29T07:55:10.104Z,80.49
2019-05-29T07:57:36.199Z,80.50
2019-05-29T08:00:05.894Z,80.45
2019-05-29T08:02:31.929Z,80.44
2019-05-29T08:04:58.035Z,80.48
2019-05-29T08:07:24.200Z,80.43
2019-05-29T08:09:50.236Z,80.28
2019-05-29T08:12:20.144Z,80.19
2019-05-29T08:14:46.050Z,80.26
2019-05-29T08:17:12.091Z,80.34
2019-05-29T08:19:56.439Z,80.37
2019-05-29T08:22:06.286Z,80.41
2019-05-29T08:24:34.100Z,80.37
2019-05-29T08:27:00.228Z,80.34
2019-05-29T08:29:26.141Z,80.22
2019-05-29T08:31:52.168Z,80.29
2019-05-29T08:34:18.333Z,80.34
2019-05-29T08:37:00.822Z,80.24
2019-05-29T08:39:12.076Z,80.15
2019-05-29T08:41:38.188Z,80.10
2019-05-29T08:44:04.164Z,80.02
2019-05-29T08:46:33.360Z,79.89
2019-05-29T08:48:57.988Z,79.92
2019-05-29T08:51:23.902Z,79.92
2019-05-29T08:53:52.068Z,80.00
2019-05-29T08:56:17.863Z,79.98
2019-05-29T08:58:44.370Z,79.94
2019-05-29T09:01:10.440Z,79.92
2019-05-29T09:03:36.615Z,79.88
2019-05-29T09:06:08.866Z,79.78
2019-05-29T09:08:30.718Z,79.74
2019-05-29T09:10:56.790Z,79.85
2019-05-29T09:13:22.682Z,79.88
2019-05-29T09:15:48.813Z,79.72
2019-05-29T09:18:15.087Z,79.70
2019-05-29T09:21:01.061Z,79.70
2019-05-29T09:23:08.882Z,79.76
2019-05-29T09:25:35.181Z,79.74
2019-05-29T09:28:04.878Z,79.55
2019-05-29T09:30:30.798Z,79.46
2019-05-29T09:32:56.829Z,79.54
2019-05-29T09:35:24.598Z,79.59
2019-05-29T09:37:50.683Z,79.46
2019-05-29T09:40:19.203Z,79.44
2019-05-29T09:42:45.586Z,79.41
2019-05-29T09:45:11.693Z,79.30
2019-05-29T09:47:37.896Z,79.16
2019-05-29T09:50:07.233Z,79.27
2019-05-29T09:52:33.183Z,79.22
2019-05-29T09:55:00.275Z,79.20
2019-05-29T09:57:26.471Z,79.13
2019-05-29T09:59:53.814Z,79.12
2019-05-29T10:02:22.552Z,79.07
2019-05-29T10:04:48.560Z,78.98
2019-05-29T10:07:14.673Z,78.93
2019-05-29T10:09:40.873Z,78.93
2019-05-29T10:12:07.079Z,78.78
2019-05-29T10:14:33.207Z,78.72
2019-05-29T10:17:05.944Z,78.67
2019-05-29T10:19:27.214Z,78.57
2019-05-29T10:21:54.766Z,78.44
2019-05-29T10:24:20.845Z,78.49
2019-05-29T10:26:46.769Z,78.46
2019-05-29T10:29:12.806Z,78.37
2019-05-29T10:31:38.867Z,78.39
2019-05-29T10:34:04.883Z,78.39
2019-05-29T10:36:30.810Z,78.38
2019-05-29T10:38:57.084Z,78.22
2019-05-29T10:41:23.000Z,78.17
2019-05-29T10:43:49.195Z,78.21
2019-05-29T10:46:15.281Z,78.07
2019-05-29T10:48:41.205Z,77.96
2019-05-29T10:51:07.230Z,78.00
2019-05-29T10:53:33.302Z,77.94
2019-05-29T10:55:59.238Z,77.69
2019-05-29T10:58:25.276Z,77.88
2019-05-29T11:00:51.459Z,77.90
2019-05-29T11:03:17.439Z,77.55
2019-05-29T11:05:43.402Z,77.52
2019-05-29T11:08:09.535Z,77.32
2019-05-29T11:10:35.876Z,77.13
2019-05-29T11:13:01.962Z,76.95
2019-05-29T11:15:28.275Z,76.66
2019-05-29T11:17:55.316Z,76.42
2019-05-29T11:20:22.721Z,76.32
2019-05-29T11:22:49.557Z,76.36
2019-05-29T11:25:23.371Z,76.32
2019-05-29T11:27:43.774Z,76.09
2019-05-29T11:30:11.728Z,75.75
2019-05-29T11:32:38.868Z,75.69
2019-05-29T11:35:05.201Z,75.94
2019-05-29T11:37:31.371Z,76.10
2019-05-29T11:39:57.276Z,76.29
2019-05-29T11:42:27.626Z,76.29
2019-05-29T11:44:53.279Z,76.20
2019-05-29T11:47:19.488Z,76.25
2019-05-29T11:49:45.393Z,76.46
2019-05-29T11:52:23.682Z,76.56
2019-05-29T11:54:39.295Z,76.50
2019-05-29T11:57:05.351Z,76.43
2019-05-29T11:59:31.432Z,76.43
2019-05-29T12:01:59.325Z,76.59
2019-05-29T12:04:26.899Z,76.74
2019-05-29T12:06:53.303Z,76.96
2019-05-29T12:09:31.885Z,77.04
2019-05-29T12:11:47.376Z,76.96
2019-05-29T12:14:13.443Z,76.83
2019-05-29T12:16:39.475Z,76.66
2019-05-29T12:19:05.487Z,76.54
2019-05-29T12:21:31.601Z,76.51
2019-05-29T12:23:58.211Z,76.77
2019-05-29T12:26:25.327Z,77.25
2019-05-29T12:28:53.467Z,77.30
2019-05-29T12:31:19.276Z,77.25
2019-05-29T12:33:45.244Z,77.59
2019-05-29T12:36:11.365Z,77.65
2019-05-29T12:38:37.349Z,77.75
2019-05-29T12:41:03.918Z,78.14
2019-05-29T12:43:30.047Z,78.35
2019-05-29T12:45:57.611Z,78.44
2019-05-29T12:48:23.696Z,78.58
2019-05-29T12:50:49.899Z,78.44
2019-05-29T12:53:29.610Z,78.32
2019-05-29T12:55:43.821Z,78.47
2019-05-29T12:58:09.828Z,78.61
2019-05-29T13:00:35.816Z,78.64
2019-05-29T13:03:03.102Z,78.59
2019-05-29T13:05:29.326Z,78.52
2019-05-29T13:07:56.750Z,78.65
2019-05-29T13:10:30.562Z,78.57
2019-05-29T13:12:51.873Z,78.70
2019-05-29T13:15:18.473Z,78.80
2019-05-29T13:17:44.609Z,78.73
2019-05-29T13:20:21.265Z,78.82
2019-05-29T13:22:40.946Z,78.79
2019-05-29T13:25:07.367Z,78.63
2019-05-29T13:27:33.790Z,78.42
2019-05-29T13:30:02.478Z,78.30
2019-05-29T13:32:27.942Z,78.42
2019-05-29T13:34:55.759Z,78.35
2019-05-29T13:37:21.820Z,78.38
2019-05-29T13:39:47.742Z,78.17
2019-05-29T13:42:14.228Z,77.95
2019-05-29T13:44:40.133Z,77.57
2019-05-29T13:47:06.392Z,77.26
2019-05-29T13:49:32.625Z,77.25
2019-05-29T13:51:59.150Z,77.05
2019-05-29T13:54:25.132Z,76.94
2019-05-29T13:56:51.286Z,76.79
2019-05-29T13:59:17.321Z,76.59
2019-05-29T14:01:48.125Z,76.08
2019-05-29T14:04:11.364Z,75.79
2019-05-29T14:06:37.472Z,75.53
2019-05-29T14:09:07.586Z,75.25
2019-05-29T14:11:34.106Z,74.99
2019-05-29T14:14:01.251Z,74.86
2019-05-29T14:16:27.264Z,74.55
2019-05-29T14:18:53.580Z,74.03
2019-05-29T14:21:19.572Z,73.79
2019-05-29T14:23:45.470Z,73.83
2019-05-29T14:26:12.994Z,73.59
2019-05-29T14:28:39.015Z,73.27
2019-05-29T14:31:05.983Z,73.25
2019-05-29T14:33:32.290Z,73.11
2019-05-29T14:35:58.179Z,73.15
2019-05-29T14:38:24.075Z,72.95
2019-05-29T14:40:50.259Z,72.52
2019-05-29T14:43:16.206Z,72.76
2019-05-29T14:45:42.082Z,72.88
2019-05-29T14:48:08.258Z,72.66
2019-05-29T14:50:34.290Z,72.46
2019-05-29T14:53:00.309Z,72.27
2019-05-29T14:55:26.346Z,72.43
2019-05-29T14:57:52.247Z,72.16
2019-05-29T15:00:24.760Z,72.24
2019-05-29T15:02:46.834Z,72.11
2019-05-29T15:05:15.217Z,72.01
2019-05-29T15:07:41.386Z,71.44
2019-05-29T15:10:22.633Z,71.26
2019-05-29T15:12:37.342Z,71.41
2019-05-29T15:15:06.674Z,70.04
2019-05-29T15:17:33.128Z,67.28
2019-05-29T15:19:59.026Z,66.54
2019-05-29T15:22:24.916Z,65.66
2019-05-29T15:25:04.213Z,65.70
2019-05-29T15:27:21.041Z,65.48
2019-05-29T15:29:46.952Z,65.08
2019-05-29T15:32:14.520Z,65.15
2019-05-29T15:34:40.581Z,65.22
2019-05-29T15:37:10.245Z,66.08
2019-05-29T15:39:34.410Z,67.31
2019-05-29T15:42:00.333Z,68.64
2019-05-29T15:44:26.419Z,69.88
2019-05-29T15:46:52.565Z,70.48
2019-05-29T15:49:18.557Z,70.62
2019-05-29T15:51:44.478Z,70.67
2019-05-29T15:54:11.211Z,70.64
2019-05-29T15:56:37.219Z,70.76
2019-05-29T15:59:03.736Z,71.15
2019-05-29T16:01:29.750Z,71.04
2019-05-29T16:03:55.669Z,70.69
2019-05-29T16:06:21.724Z,70.27
2019-05-29T16:08:47.829Z,70.08
2019-05-29T16:11:14.652Z,69.81
2019-05-29T16:13:40.710Z,69.88
2019-05-29T16:16:06.793Z,69.75
2019-05-29T16:18:32.716Z,69.59
2019-05-29T16:20:58.641Z,67.88
2019-05-29T16:23:34.733Z,66.30
2019-05-29T16:25:52.660Z,65.73
2019-05-29T16:28:19.368Z,64.43
2019-05-29T16:30:45.471Z,64.75
2019-05-29T16:33:12.842Z,63.72
2019-05-29T16:35:38.817Z,63.96
2019-05-29T16:38:05.006Z,64.56
2019-05-29T16:40:30.936Z,65.13
2019-05-29T16:42:56.843Z,64.60
2019-05-29T16:45:23.033Z,64.08
2019-05-29T16:47:48.971Z,64.54
2019-05-29T16:50:17.321Z,64.31
2019-05-29T16:52:43.668Z,63.77
2019-05-29T16:55:11.211Z,63.08
2019-05-29T16:57:37.117Z,61.53
2019-05-29T17:00:07.236Z,61.92
2019-05-29T17:02:33.260Z,61.37
2019-05-29T17:04:59.269Z,61.83
2019-05-29T17:07:25.470Z,61.63
2019-05-29T17:09:51.885Z,61.11
2019-05-29T17:12:18.370Z,61.17
2019-05-29T17:14:44.510Z,61.50
2019-05-29T17:17:10.588Z,61.44
2019-05-29T17:19:36.754Z,61.80
2019-05-29T17:22:02.977Z,61.31
2019-05-29T17:24:28.995Z,61.33
2019-05-29T17:26:54.895Z,61.88
2019-05-29T17:29:20.956Z,61.54
2019-05-29T17:31:46.875Z,61.19
2019-05-29T17:34:12.780Z,60.99
2019-05-29T17:36:38.845Z,61.20
2019-05-29T17:39:06.381Z,61.12
2019-05-29T17:41:32.276Z,61.39
2019-05-29T17:43:58.448Z,61.34
2019-05-29T17:46:25.858Z,61.51
2019-05-29T17:48:51.996Z,62.15
2019-05-29T17:51:18.088Z,62.50
2019-05-29T17:53:44.008Z,62.96
2019-05-29T17:56:23.361Z,63.08
2019-05-29T17:58:38.097Z,63.27
2019-05-29T18:01:04.535Z,63.58
2019-05-29T18:03:30.430Z,63.62
2019-05-29T18:05:56.608Z,63.66
2019-05-29T18:08:22.915Z,63.97
2019-05-29T18:10:49.108Z,64.09
2019-05-29T18:13:15.112Z,64.32
2019-05-29T18:15:41.212Z,64.33
2019-05-29T18:18:07.211Z,64.47
2019-05-29T18:20:33.377Z,64.49
2019-05-29T18:22:59.266Z,64.76
2019-05-29T18:25:26.044Z,65.00
2019-05-29T18:27:52.230Z,65.39
2019-05-29T18:30:18.635Z,65.98
2019-05-29T18:32:44.529Z,66.53
2019-05-29T18:35:12.221Z,66.86
2019-05-29T18:37:38.330Z,67.14
2019-05-29T18:40:12.302Z,67.70
2019-05-29T18:42:35.989Z,68.03
2019-05-29T18:45:19.802Z,68.01
2019-05-29T18:47:35.639Z,68.14
2019-05-29T18:50:04.414Z,68.01
2019-05-29T18:52:32.739Z,67.99
2019-05-29T18:54:58.225Z,67.74
2019-05-29T18:57:25.077Z,67.18
2019-05-29T18:59:51.033Z,67.32
2019-05-29T19:02:17.027Z,66.69
2019-05-29T19:04:43.136Z,66.46
2019-05-29T19:07:09.141Z,66.65
2019-05-29T19:09:35.155Z,66.71
2019-05-29T19:12:01.197Z,66.63
2019-05-29T19:14:27.966Z,66.00
2019-05-29T19:16:54.020Z,65.70
2019-05-29T19:19:20.202Z,65.68
2019-05-29T19:21:46.127Z,65.29
2019-05-29T19:24:12.243Z,65.36
2019-05-29T19:26:38.313Z,64.92
2019-05-29T19:29:04.412Z,64.87
2019-05-29T19:31:31.310Z,64.82
2019-05-29T19:33:57.520Z,64.81
2019-05-29T19:36:23.638Z,64.67
2019-05-29T19:38:49.555Z,64.75
2019-05-29T19:41:15.655Z,64.46
2019-05-29T19:43:41.658Z,64.64
2019-05-29T19:46:07.776Z,64.13
2019-05-29T19:48:35.202Z,64.37
2019-05-29T19:51:01.566Z,64.20
2019-05-29T19:53:28.016Z,64.02
2019-05-29T19:55:54.517Z,64.15
2019-05-29T19:58:20.555Z,63.75
2019-05-29T20:00:46.468Z,63.81
2019-05-29T20:03:12.729Z,63.35
2019-05-29T20:05:38.812Z,62.97
2019-05-29T20:08:04.909Z,62.86
2019-05-29T20:10:31.426Z,62.79
2019-05-29T20:12:57.375Z,62.83
2019-05-29T20:15:23.511Z,62.57
2019-05-29T20:17:49.571Z,62.52
2019-05-29T20:20:15.878Z,62.46
2019-05-29T20:22:41.913Z,62.20
2019-05-29T20:25:09.204Z,61.96
2019-05-29T20:27:36.306Z,61.62
2019-05-29T20:30:03.804Z,61.84
2019-05-29T20:32:30.525Z,61.51
2019-05-29T20:34:56.577Z,61.51
2019-05-29T20:37:22.610Z,61.48
2019-05-29T20:39:48.698Z,61.62
2019-05-29T20:42:14.711Z,61.62
2019-05-29T20:44:40.650Z,61.62
2019-05-29T20:47:08.551Z,61.27
2019-05-29T20:49:34.443Z,61.14
2019-05-29T20:52:00.382Z,61.22
2019-05-29T20:54:26.371Z,61.32
2019-05-29T20:56:52.268Z,61.24
2019-05-29T20:59:18.448Z,61.19
2019-05-29T21:01:47.395Z,61.25
2019-05-29T21:04:12.223Z,61.16
2019-05-29T21:06:38.625Z,61.12
2019-05-29T21:09:05.626Z,61.30
2019-05-29T21:11:31.524Z,61.42
2019-05-29T21:13:57.441Z,61.54
2019-05-29T21:16:23.572Z,61.68
2019-05-29T21:18:49.614Z,61.64
2019-05-29T21:21:15.584Z,61.69
2019-05-29T21:23:42.509Z,61.88
2019-05-29T21:26:08.496Z,62.02
2019-05-29T21:28:40.779Z,61.96
2019-05-29T21:31:02.470Z,61.88
2019-05-29T21:33:28.594Z,61.83
2019-05-29T21:35:54.533Z,61.88
2019-05-29T21:38:20.704Z,61.65
2019-05-29T21:40:46.833Z,61.82
2019-05-29T21:43:12.705Z,61.85
2019-05-29T21:45:38.770Z,61.86
2019-05-29T21:48:04.780Z,61.85
2019-05-29T21:50:31.105Z,61.94
2019-05-29T21:52:57.170Z,61.92
2019-05-29T21:55:23.173Z,61.96
2019-05-29T21:57:50.344Z,62.04
2019-05-29T22:00:19.328Z,61.78
2019-05-29T22:02:46.399Z,61.85
2019-05-29T22:05:12.749Z,61.85
2019-05-29T22:07:39.008Z,61.96
2019-05-29T22:10:05.429Z,61.93
2019-05-29T22:12:31.477Z,61.98
2019-05-29T22:14:58.869Z,62.05
2019-05-29T22:17:24.861Z,61.90
2019-05-29T22:19:51.011Z,61.98
2019-05-29T22:22:17.169Z,61.96
2019-05-29T22:24:43.190Z,62.14
2019-05-29T22:27:09.304Z,62.25
2019-05-29T22:29:35.388Z,62.42
2019-05-29T22:32:01.636Z,62.49
2019-05-29T22:34:27.640Z,62.62
2019-05-29T22:36:53.830Z,62.77
2019-05-29T22:39:19.939Z,62.87
2019-05-29T22:41:45.974Z,62.90
2019-05-29T22:44:12.159Z,62.98
2019-05-29T22:46:38.247Z,62.89
2019-05-29T22:49:04.269Z,62.89
2019-05-29T22:51:30.291Z,62.85
2019-05-29T22:53:56.307Z,63.09
2019-05-29T22:56:22.310Z,63.16
2019-05-29T22:58:48.412Z,63.19
2019-05-29T23:01:14.336Z,63.39
2019-05-29T23:03:40.370Z,63.24
2019-05-29T23:06:06.424Z,63.19
2019-05-29T23:08:32.518Z,63.17
2019-05-29T23:10:58.545Z,63.18
2019-05-29T23:13:24.659Z,63.20
2019-05-29T23:15:50.572Z,63.22
2019-05-29T23:18:16.499Z,63.28
2019-05-29T23:20:42.544Z,63.32
2019-05-29T23:23:08.650Z,63.38
2019-05-29T23:25:34.682Z,63.33
2019-05-29T23:28:01.131Z,63.54
2019-05-29T23:30:30.264Z,63.63
2019-05-29T23:32:54.975Z,63.73
2019-05-29T23:35:20.970Z,63.81
2019-05-29T23:37:46.873Z,63.72
2019-05-29T23:40:14.189Z,63.74
2019-05-29T23:42:40.271Z,63.82
2019-05-29T23:45:06.778Z,63.95
2019-05-29T23:47:32.811Z,64.05
2019-05-29T23:49:59.709Z,63.98
2019-05-29T23:52:25.696Z,64.02
2019-05-29T23:54:51.635Z,64.08
2019-05-29T23:57:17.814Z,64.08
2019-05-29T23:59:43.710Z,64.06
